Breeders Fall Classic - INVENTORY

Station: INVENTORY - T Race

Distance: 10 Miles    

Release: 23-Jul-2020 08:00

Weather Release:    Arrival:

Wind at Release:     Wind at Arrival:

Temp at Release: °    Temp at Arrival: °

Lofts: 69

Birds: 230

Clocked: 224

Good Luck to Everyone!
Drops Pos Breeder Pigeon Name Color Sex Ent Arrival Speed To Win Elg PdColored
1 Steve Zurcher - OH 0476-AU20-OCR BC H 1 11:53:14.90 75.456 00:00:00 Yes
2 Red Ass Ranch - TX 0628-AU20-RAR BB H 1 11:53:15.40 75.453 00:00:01 Yes
3 Chen Loft - PA 0535-AU20-TFC Gold Star—nl-854 BC H 1 11:53:15.80 75.451 00:00:01 Yes
3 Elite Loft - IL 0806-AU20-ELIT BB H 1 11:53:15.90 75.451 00:00:01 Yes
5 Drama Queen Loft - TX 1089-AU20-GCI 179 x 135 BB H 1 11:53:16.30 75.449 00:00:01 Yes
5 Cloux Loft - CO 20714-AU20-FH BB H 1 11:53:16.30 75.449 00:00:01 Yes
7 Clear Springs Loft - FL 0010-AU20-WARD BB H 1 11:53:16.80 75.446 00:00:02 Yes
8 Goshentown Lofts - TN 8961-AU20-NASH BB H 1 11:53:16.90 75.445 00:00:02 Yes
8 S & P Loft - MI 1408-AU20-JEDD CHOC H 1 11:53:16.90 75.445 00:00:02 Yes
10 Andy Owen - GA 0018-AU20-AOWN BB H 1 11:53:17.40 75.443 00:00:02 Yes
11 Salvicon - CA 0080-AU20-RBPC BB H 1 11:53:17.90 75.440 00:00:03 Yes
11 John Haller - OH 0508-AU20-IHC BB H 1 11:53:17.90 75.440 00:00:03 Yes
13 Tim Byers - OH 1507-AU20-BUCK BB H 1 11:53:18.00 75.439 00:00:03 Yes
14 Abilene Loft - OH 1341-AU20-MVS BB H 1 11:53:18.60 75.436 00:00:04 Yes
14 Mike Hines - SD 0575-AU20-GPF DC H 1 11:53:18.60 75.436 00:00:04 Yes
14 Smethers Loft - VA 0114-AU20-RICH BBWF H 1 11:53:18.60 75.436 00:00:04 Yes
17 Swc Club - PA 1383-AU20-FOYS BB H 1 11:53:19.20 75.433 00:00:04 Yes
17 Lindbergh Flyers - MO 20513-AU20-NERP BB H 1 11:53:19.20 75.433 00:00:04 Yes
17 Double J Racing Loft - OH 0408-AU20-IRPC BB H 1 11:53:19.20 75.433 00:00:04 Yes
20 Hawkroost Loft - OH 0408-AU20-COV BC H 1 11:53:19.80 75.430 00:00:05 Yes
20 Borgeson Loft - LA 20532-AU20-MET SILV H 1 11:53:19.80 75.430 00:00:05 Yes
20 Loan Tran - MA 13086-AU20-FOYS PENC H 1 11:53:19.80 75.430 00:00:05 Yes
23 Chen Loft - PA 0002-AU20-CHEN Super King—chens Girl BB H 2 11:53:20.30 75.427 00:00:05 Missing
23 Loan Tran - MA 13098-AU20-FOYS BB H 2 11:53:20.30 75.427 00:00:05 Yes
25 Ron Pairan - OH 0651-AU20-LFO BB H 1 11:53:20.80 75.424 00:00:06 Yes
26 Elton Dinga - TX 11047-AU20-AA Purdey 1286 x Purdey 1004 BB H 1 11:53:21.10 75.423 00:00:06 Yes
27 Elton Dinga - TX 11045-AU20-AA Kruger 1905 x Purdy 12005 BB H 2 11:53:22.20 75.417 00:00:07 Yes
27 Clear Springs Loft - FL 0020-AU20-WARD BB H 2 11:53:22.20 75.417 00:00:07 Yes
29 Long Island Syndicate - NY 68516-AU20-ARPU BBSP H 1 11:53:22.80 75.413 00:00:08 Yes
30 Andy Owen - GA 0023-AU20-AOWN BB H 2 11:53:23.20 75.411 00:00:08 Yes
30 Alas De Oro - NV 71062-IF20-E BB H 1 11:53:23.30 75.411 00:00:08 Yes
32 Jacks Galaxy 2 - NV 0017-AU20-XXX 61 X 170 BB H 1 11:53:23.50 75.410 00:00:09 Yes
33 Elton Dinga - TX 11048-AU20-AA Hebberecht 579 Br Jempy BC H 3 11:53:24.60 75.404 00:00:10 Yes
33 Denali Loft - MT 7558-AU20-AA BC H 1 11:53:24.60 75.404 00:00:10 Yes
35 White Arrow Loft - IL 0503-AU20-LCC BC H 1 11:53:25.10 75.401 00:00:10 Yes
35 Dons Loft - SC 5916-AU20-GSV BBSP H 1 11:53:25.10 75.401 00:00:10 Yes
37 Cherokee Loft - MI 0634-AU20-CHER 524 Trouble X 1221 Kolv BCPW H 1 11:53:26.60 75.393 00:00:12 Yes
37 Wingsnwindloft - SC 1068-AU20-BISN " Firecracker " SBWF H 1 11:53:26.60 75.393 00:00:12 Yes
39 Chen Loft - PA 0550-AU20-TFC 34–154 BC H 3 11:53:27.20 75.390 00:00:12 Yes
40 Abilene Loft - OH 1345-AU20-MVS BBSP H 2 11:53:27.70 75.387 00:00:13 Yes
41 Spirit Loft - NE 0506-AU20-GBC BB H 1 11:53:28.20 75.384 00:00:13 Yes
42 385 Connection - SC 10026-AU20-SCO 1211/3989 BB H 1 11:53:28.70 75.382 00:00:14 Yes
43 Do Drop In Loft - NC 0087-IF20-TRC Tennessee BBWF H 1 11:53:29.10 75.380 00:00:14 Yes
44 Do Drop In Loft - NC 0072-IF20-TRC Classy Blue BB H 2 11:53:29.20 75.379 00:00:14 Yes
45 Mike Hines - SD 0567-AU20-GPF RCPW H 2 11:53:29.50 75.377 00:00:15 Yes
46 Hayloft - CA 0243-AU20-GSF BC H 1 11:53:30.00 75.375 00:00:15 Yes
46 Spirit Loft - NE 0501-AU20-GBC BB H 2 11:53:30.00 75.375 00:00:15 Yes
48 Loft By Augustine - KS 0117-AU20-SWK BCPW H 1 11:53:30.60 75.372 00:00:16 Yes
49 Salvicon - CA 1161-AU20-FCON BB H 2 11:53:30.90 75.370 00:00:16 Yes
49 Magic Pick Loft - OH 0039-AU20-IHC Beauty BBPW H 1 11:53:30.90 75.370 00:00:16 Yes
49 Sherwood Loft - UT 0401-AU20-UCA DCPW H 1 11:53:30.90 75.370 00:00:16 Yes
52 Sanborn Loft - OH 0751-AU20-IHC BC H 1 11:53:31.40 75.367 00:00:17 Yes
53 Abilene Loft - OH 1334-AU20-MVS BBPD H 3 11:53:31.70 75.366 00:00:17 Yes
53 Borgeson Loft - LA 20527-AU20-MET DC H 2 11:53:31.70 75.366 00:00:17 Yes
53 Tim Byers - OH 1506-AU20-BUCK CHOC H 2 11:53:31.70 75.366 00:00:17 Yes
56 Sanborn Loft - OH 0753-AU20-IHC BB H 2 11:53:32.50 75.361 00:00:18 Yes
56 Wareagle Loft - AL 0653-AU20-WEL BB H 1 11:53:32.60 75.361 00:00:18 Yes
58 Royal Ridge Loft - OH 1463-AU20-IHC DC H 1 11:53:33.10 75.358 00:00:18 Yes
59 385 Connection - SC 10021-AU20-SCO 3207/8002 BB H 2 11:53:33.70 75.355 00:00:19 Yes
60 Rachel Olivieri - CA 20552-AU20-LAKE G X 1841 BBWF H 1 11:53:33.80 75.354 00:00:19 Yes
61 John V. Partridge - CA 2124-AU20-PASO Tony's Heat BB H 1 11:53:34.20 75.352 00:00:19 Yes
62 Columba Loft - GA 0205-AU20-LYCH SILV H 1 11:53:34.80 75.349 00:00:20 Yes
63 Hale Nūnū - VA 0009-AU20-NUNU BBSP H 1 11:53:35.30 75.346 00:00:20 Yes
64 John Haller - OH 0503-AU20-IHC BB H 2 11:53:35.80 75.344 00:00:21 Yes
65 Spirit Loft - NE 0504-AU20-GBC DC H 3 11:53:36.10 75.342 00:00:21 Yes
65 A P C Loft - TX 20157-AU20-APC BC H 1 11:53:36.10 75.342 00:00:21 Yes
65 Do Drop In Loft - NC 0074-IF20-TRC Cool Whip WHTE H 3 11:53:36.10 75.342 00:00:21 Yes
68 Era Loft - NY 0309-AU20-BUF BC H 1 11:53:36.70 75.339 00:00:22 Yes
69 Marlboro Loft - PA 1819-IF20-PHX BC H 1 11:53:38.20 75.331 00:00:23 Yes
70 Holts Loft - NC 11690-AU20-AA BB H 1 11:53:38.70 75.328 00:00:24 Yes
71 Era Loft - NY 0319-AU20-BUF DC H 2 11:53:39.30 75.325 00:00:24 Yes
71 Dave Dudley/Ron Moden - CO 20107-AU20-PUEB BBPW H 1 11:53:39.30 75.325 00:00:24 Yes
73 Jacks Galaxy 2 - NV 0001-AU20-XXX Max X 31 DC H 2 11:53:39.90 75.322 00:00:25 Yes
74 S & P Loft - MI 1419-AU20-JEDD BBWF H 2 11:53:40.70 75.317 00:00:26 Yes
74 Era Loft - NY 0313-AU20-BUF BB H 3 11:53:40.70 75.317 00:00:26 Yes
76 Dons Loft - SC 5888-AU20-GSV BC H 2 11:53:41.20 75.315 00:00:26 Yes
77 Jacks Galaxy 2 - NV 0008-AU20-XXX 1322 X 9 BB H 3 11:53:41.70 75.312 00:00:27 Yes
78 Marlboro Loft - PA 1820-IF20-PHX DC H 2 11:53:42.20 75.309 00:00:27 Yes
79 Era Loft - NY 0334-AU20-BUF DC H 4 11:53:43.60 75.302 00:00:29 Yes
80 Columba Loft - GA 0270-AU20-LYCH BBPW H 2 11:53:44.10 75.299 00:00:29 Yes
81 Ron Pairan - OH 0647-AU20-LFO BB H 2 11:53:44.60 75.296 00:00:30 Yes
82 Cherokee Loft - MI 0636-AU20-CHER 165 Equalizer X373Mr Deep BB H 2 11:53:45.60 75.291 00:00:31 Yes
83 Lazy A C Loft - IN 0756-AU20-LAZY BLST H 1 11:53:46.10 75.288 00:00:31 Yes
84 Red Ass Ranch - TX 0633-AU20-RAR BB H 2 11:53:46.60 75.286 00:00:32 Yes
85 Bruce Daehn - FL 0414-AU20-NWFI BB H 1 11:53:48.00 75.278 00:00:33 Yes
86 Do Drop In Loft - NC 0075-IF20-TRC Show Me BB H 4 11:53:48.40 75.276 00:00:33 Yes
87 Elton Dinga - TX 11060-AU20-AA 1 Champion Texas Shootout BC H 4 11:53:48.70 75.274 00:00:34 Yes
88 Tex-Mex Loft - TX 0081-AU20-TXMX Baronesa Roja RC H 1 11:53:49.20 75.272 00:00:34 Yes
89 Tim Byers - OH 1505-AU20-BUCK CHWF H 3 11:53:49.90 75.268 00:00:35 Yes
90 John Haller - OH 0504-AU20-IHC BB H 3 11:53:50.20 75.266 00:00:35 Yes
91 Wareagle Loft - AL 0650-AU20-WEL RC H 2 11:53:50.70 75.264 00:00:36 Yes
- !-5418-AU20-ARPU-! 11:53:51.20 75.261
92 Walters Loft - NJ 56477-AU20-ARPU WHGZ H 1 11:53:52.20 75.255 00:00:37 Yes
93 Lazy A C Loft - IN 0750-AU20-LAZY BB H 2 11:53:52.70 75.253 00:00:38 Yes
94 Lazy A C Loft - IN 0759-AU20-LAZY BB H 3 11:53:54.20 75.245 00:00:39 Yes
95 Kastle Loft - KY 2071-AU20-KAST Kastle Titan BC H 1 11:53:54.90 75.241 00:00:40 Yes
96 Rachel Olivieri - CA 20551-AU20-LAKE G X 1841 BCWF H 2 11:53:55.70 75.237 00:00:41 Yes
96 Smethers Loft - VA 0110-AU20-RICH BB H 2 11:53:55.70 75.237 00:00:41 Yes
98 Elite Loft - IL 0801-AU20-ELIT BC H 2 11:53:56.20 75.234 00:00:41 Yes
99 Rachel Olivieri - CA 20544-AU20-LAKE G X 1841 DC H 3 11:53:58.20 75.223 00:00:43 Yes

There are 243 bird records

Note: These Race Results are unofficial and subject to change until verified by the Race Committee and declared final.